• Join FlightAware (Why Join?)
  • Login
  • US Flag 
09:27AM EDT


 

Airport Tracker/Info


-or-


 

Live Flight TrackerFlight Track Log ✈ ASQ5963 ✈ 18-Jul-2013 ✈ KIAH - KTYS

Flight Track Log - Related Links

Times and Time Zones

All times are in EDT time to prevent confusion due to time zone crossing. See the ASQ5963 flight status page for this flight to view local times or setup timezone preferences in your user account.

Time Position Orientation Groundspeed Altitude Reporting Facility
EDT Latitude Longitude Course Direction KTS MPH feet Rate Location/Type
02:07PM 29.9594 -95.3414 90° East 160 184 700  Level Houston Center
02:08PM 29.9431 -95.2858 109° East 192 221 2,500 1,680 Climbing Houston Center
02:09PM 29.9389 -95.2133 94° East 214 246 4,400 2,160 Climbing Houston Center
02:10PM 29.9833 -94.8481 90° East  Level FlightAware Approximate
02:10PM 29.9458 -95.1367 84° East 235 270 7,000  Level Houston Center
02:11PM 29.9834 -94.7268 90° East  Level FlightAware Approximate
02:11PM 29.9506 -95.0561 86° East 250 288 8,600  Level Houston Center
02:12PM 29.9833 -94.6055 90° East  Level FlightAware Approximate
02:12PM 29.9564 -94.9486 86° East 275 316 10,600  Level Houston Center
02:13PM 29.9631 -94.8728 84° East 299 344 11,000 780 Climbing Houston Center
02:14PM 29.9711 -94.7406 86° East 339 390 12,200 1,440 Climbing Houston Center
02:15PM 29.9781 -94.6303 86° East 344 396 14,100 1,500 Climbing Houston Center
02:16PM 29.9844 -94.5231 86° East 338 389 15,300 1,140 Climbing Houston Center
02:17PM 29.9911 -94.4086 86° East 345 397 16,500 1,080 Climbing Houston Center
02:18PM 29.9983 -94.2983 86° East 348 400 17,600 900 Climbing Houston Center
02:19PM 30.0114 -94.1856 82° East 356 410 18,400 960 Climbing Houston Center
02:20PM 30.0275 -94.0475 82° East 365 420 19,600 1,020 Climbing Houston Center
02:21PM 30.0425 -93.9311 82° East 369 425 20,600 900 Climbing Houston Center
02:22PM 30.0567 -93.8133 82° East 374 430 21,500 900 Climbing Houston Center
02:23PM 30.0714 -93.6942 82° East 378 435 22,500 960 Climbing Houston Center
02:24PM 30.0839 -93.5772 83° East 374 430 23,500 1,020 Climbing Houston Center
02:25PM 30.1011 -93.4333 82° East 381 438 24,700 1,020 Climbing Houston Center
02:26PM 30.1167 -93.3147 81° East 379 436 25,700 960 Climbing Houston Center
02:27PM 30.1697 -93.2125 59° Northeast 373 429 26,700 960 Climbing Houston Center
02:28PM 30.2242 -93.1103 58° Northeast 376 433 27,700 900 Climbing Houston Center
02:29PM 30.2778 -93.0092 58° Northeast 374 430 28,600 1,020 Climbing Houston Center
02:30PM 30.3411 -92.8886 59° Northeast 370 426 29,900 1,200 Climbing Houston Center
02:31PM 30.3933 -92.7878 59° Northeast 366 421 31,100 1,200 Climbing Houston Center
02:32PM 30.4453 -92.6894 58° Northeast 359 413 32,400 1,260 Climbing Houston Center
02:34PM 30.5031 -92.5789 59° Northeast 352 405 33,800 1,200 Climbing Houston Center
02:35PM 30.5519 -92.4844 59° Northeast 344 396 35,000 960 Climbing Houston Center
02:36PM 30.6006 -92.3911 59° Northeast 339 390 35,900 840 Climbing Houston Center
02:37PM 30.6483 -92.2986 59° Northeast 336 387 36,800 480 Climbing Houston Center
02:38PM 30.6961 -92.2064 59° Northeast 336 387 37,000 60 Climbing Houston Center
02:39PM 30.7572 -92.0889 59° Northeast 354 407 37,000  Level Houston Center
02:40PM 30.8103 -91.9850 59° Northeast 372 428 37,000  Level Houston Center
02:41PM 30.8669 -91.8767 59° Northeast 391 450 37,000  Level Houston Center
02:42PM 30.9236 -91.7636 60° Northeast 404 465 37,000  Level Houston Center
02:43PM 30.9836 -91.6492 59° Northeast 414 476 37,000  Level Houston Center
02:44PM 31.0544 -91.5089 59° Northeast 420 483 37,000  Level Houston Center
02:45PM 31.1117 -91.3975 59° Northeast 418 481 37,000  Level Houston Center
02:46PM 31.1714 -91.2811 59° Northeast 417 480 37,000  Level Houston Center
02:47PM 31.2283 -91.1658 60° Northeast 411 473 37,000  Level Houston Center
02:48PM 31.2853 -91.0500 60° Northeast 411 473 37,000  Level Houston Center
02:49PM 31.3550 -90.9114 59° Northeast 411 473 37,000  Level Houston Center
02:50PM 31.4139 -90.7953 59° Northeast 413 475 37,000  Level Houston Center
02:51PM 31.4708 -90.6789 60° Northeast 411 473 37,000  Level Houston Center
02:52PM 31.5286 -90.5639 59° Northeast 410 472 37,000  Level Houston Center
02:53PM 31.5856 -90.4472 60° Northeast 411 473 37,000  Level Houston Center
02:54PM 31.6431 -90.3306 60° Northeast 412 474 37,000  Level Houston Center
02:55PM 31.7122 -90.1900 60° Northeast 414 476 37,000  Level Houston Center
02:56PM 31.7703 -90.0708 60° Northeast 417 480 37,000  Level Houston Center
02:57PM 31.8292 -89.9511 60° Northeast 420 483 37,000  Level Houston Center
02:58PM 31.8922 -89.8197 60° Northeast 420 483 37,000  Level Houston Center
02:59PM 31.9211 -89.7625 59° Northeast 413 475 37,000  Level Memphis Center
03:00PM 31.9767 -89.6447 61° Northeast 413 475 37,000  Level Memphis Center
03:01PM 32.0325 -89.5292 60° Northeast 413 475 37,000  Level Memphis Center
03:02PM 32.0900 -89.4133 60° Northeast 413 475 37,000  Level Memphis Center
03:03PM 32.1517 -89.2825 61° Northeast 408 470 37,000  Level Memphis Center
03:04PM 32.2089 -89.1642 60° Northeast 408 470 37,000  Level Memphis Center
03:05PM 32.2661 -89.0453 60° Northeast 408 470 37,000  Level Memphis Center
03:06PM 32.3214 -88.9267 61° Northeast 408 470 37,000  Level Memphis Center
03:07PM 32.3783 -88.8075 60° Northeast 408 470 37,000  Level Memphis Center
03:08PM 32.4500 -88.7006 52° Northeast 408 470 37,000  Level Memphis Center
03:09PM 32.5258 -88.5906 51° Northeast 413 475 37,000  Level Memphis Center
03:10PM 32.6014 -88.4831 50° Northeast 418 481 37,000  Level Memphis Center
03:11PM 32.6792 -88.3753 49° Northeast 423 487 37,000  Level Memphis Center
03:14PM 32.8808 -88.0731 51° Northeast 408 470 37,000  Level Atlanta Center
03:15PM 32.9486 -87.9747 51° Northeast 403 464 37,000  Level Atlanta Center
03:16PM 33.0275 -87.8617 50° Northeast 409 471 37,000  Level Atlanta Center
03:17PM 33.0997 -87.7508 52° Northeast 409 471 37,000  Level Atlanta Center
03:18PM 33.1739 -87.6397 51° Northeast 409 471 37,000  Level Atlanta Center
03:19PM 33.2458 -87.5336 51° Northeast 409 471 37,000  Level Atlanta Center
03:20PM 33.3178 -87.4244 52° Northeast 409 471 37,000  Level Atlanta Center
03:21PM 33.3894 -87.3178 51° Northeast 409 471 37,000  Level Atlanta Center
03:22PM 33.4656 -87.2064 51° Northeast 414 476 37,000  Level Atlanta Center
03:23PM 33.5372 -87.0942 53° Northeast 419 482 37,000  Level Atlanta Center
03:24PM 33.6108 -86.9847 51° Northeast 419 482 37,000  Level Atlanta Center
03:25PM 33.6867 -86.8722 51° Northeast 419 482 37,000  Level Atlanta Center
03:26PM 33.7661 -86.7650 48° Northeast 419 482 37,000  Level Atlanta Center
03:27PM 33.8478 -86.6600 47° Northeast 424 488 37,000  Level Atlanta Center
03:28PM 33.9294 -86.5500 48° Northeast 430 495 37,000  Level Atlanta Center
03:29PM 34.0108 -86.4444 47° Northeast 430 495 37,000  Level Atlanta Center
03:30PM 34.0878 -86.3414 48° Northeast 425 489 37,000  Level Atlanta Center
03:31PM 34.1669 -86.2356 48° Northeast 425 489 37,000  Level Atlanta Center
03:32PM 34.2461 -86.1294 48° Northeast 425 489 37,000  Level Atlanta Center
03:33PM 34.3167 -86.0333 48° Northeast 425 489 37,000  Level Atlanta Center
03:34PM 34.3914 -85.9292 49° Northeast 425 489 37,000  Level Atlanta Center
03:35PM 34.4700 -85.8253 47° Northeast 420 483 37,000  Level Atlanta Center
03:36PM 34.5550 -85.7186 46° Northeast 408 470 37,000 -360 Level Atlanta Center
03:37PM 34.6275 -85.6139 50° Northeast 408 470 36,300 -1,320 Descending Atlanta Center
03:38PM 34.7081 -85.5069 47° Northeast 413 475 34,400 -1,920 Descending Atlanta Center
03:39PM 34.7864 -85.3994 48° Northeast 413 475 32,500 -1,200 Descending Atlanta Center
03:40PM 34.8606 -85.2969 49° Northeast 413 475 32,000 -300 Descending Atlanta Center
03:41PM 34.9306 -85.1967 50° Northeast 402 463 32,000 -960 Level Atlanta Center
03:42PM 35.0044 -85.0986 47° Northeast 396 456 30,100 -2,580 Descending Atlanta Center
03:43PM 35.0803 -84.9981 47° Northeast 396 456 26,900 -3,000 Descending Atlanta Center
03:44PM 35.1583 -84.8950 47° Northeast 396 456 24,100 -2,700 Descending Atlanta Center
03:45PM 35.2339 -84.7967 47° Northeast 396 456 21,600 -2,760 Descending Atlanta Center
03:46PM 35.3075 -84.6978 48° Northeast 396 456 18,600 -2,940 Descending Atlanta Center
03:47PM 35.3789 -84.6017 48° Northeast 391 450 15,800 -2,940 Descending Atlanta Center
03:48PM 35.4461 -84.5103 48° Northeast 380 437 12,800 -2,460 Descending Atlanta Center
03:49PM 35.5047 -84.4317 48° Northeast 363 418 10,900 -1,560 Descending Atlanta Center
03:50PM 35.5594 -84.3553 49° Northeast 328 377 9,700 -1,680 Descending Atlanta Center
03:51PM 35.6075 -84.2814 51° Northeast 293 337 7,600 -2,340 Descending Atlanta Center
03:52PM 35.6556 -84.2100 50° Northeast 272 313 5,100 -2,520 Descending Atlanta Center